sensor_id;sensor_type;location;lat;lon;timestamp;P1;durP1;ratioP1;P2;durP2;ratioP2
54935;SDS011;40838;50.676;7.838;2022-07-23T00:00:31;13.80;;;9.65;;
54935;SDS011;40838;50.676;7.838;2022-07-23T00:02:58;13.85;;;10.27;;
54935;SDS011;40838;50.676;7.838;2022-07-23T00:05:26;13.13;;;10.57;;
54935;SDS011;40838;50.676;7.838;2022-07-23T00:07:54;14.80;;;9.55;;
54935;SDS011;40838;50.676;7.838;2022-07-23T00:10:21;14.57;;;9.75;;
54935;SDS011;40838;50.676;7.838;2022-07-23T00:12:47;12.55;;;9.85;;
54935;SDS011;40838;50.676;7.838;2022-07-23T00:15:16;14.10;;;9.32;;
54935;SDS011;40838;50.676;7.838;2022-07-23T00:17:47;13.57;;;9.88;;
54935;SDS011;40838;50.676;7.838;2022-07-23T00:20:13;11.95;;;10.18;;
54935;SDS011;40838;50.676;7.838;2022-07-23T00:22:48;13.43;;;9.65;;
54935;SDS011;40838;50.676;7.838;2022-07-23T00:25:16;12.05;;;9.80;;
54935;SDS011;40838;50.676;7.838;2022-07-23T00:27:43;16.50;;;10.50;;
54935;SDS011;40838;50.676;7.838;2022-07-23T00:30:12;11.98;;;8.98;;
54935;SDS011;40838;50.676;7.838;2022-07-23T00:32:46;17.15;;;10.63;;
54935;SDS011;40838;50.676;7.838;2022-07-23T00:35:15;11.57;;;9.85;;
54935;SDS011;40838;50.676;7.838;2022-07-23T00:37:42;14.30;;;11.07;;
54935;SDS011;40838;50.676;7.838;2022-07-23T00:40:09;14.25;;;9.98;;
54935;SDS011;40838;50.676;7.838;2022-07-23T00:42:37;15.23;;;10.30;;
54935;SDS011;40838;50.676;7.838;2022-07-23T00:45:06;16.38;;;11.40;;
54935;SDS011;40838;50.676;7.838;2022-07-23T00:47:33;13.25;;;10.98;;
54935;SDS011;40838;50.676;7.838;2022-07-23T00:50:01;14.82;;;11.00;;
54935;SDS011;40838;50.676;7.838;2022-07-23T00:52:28;16.65;;;11.02;;
54935;SDS011;40838;50.676;7.838;2022-07-23T00:54:55;17.30;;;10.70;;
54935;SDS011;40838;50.676;7.838;2022-07-23T00:57:22;16.67;;;11.00;;
54935;SDS011;40838;50.676;7.838;2022-07-23T00:59:50;17.80;;;11.60;;
54935;SDS011;40838;50.676;7.838;2022-07-23T01:02:17;14.73;;;11.55;;
54935;SDS011;40838;50.676;7.838;2022-07-23T01:04:43;15.65;;;11.10;;
54935;SDS011;40838;50.676;7.838;2022-07-23T01:07:10;18.10;;;11.38;;
54935;SDS011;40838;50.676;7.838;2022-07-23T01:09:37;13.65;;;10.35;;
54935;SDS011;40838;50.676;7.838;2022-07-23T01:12:04;14.88;;;10.25;;
54935;SDS011;40838;50.676;7.838;2022-07-23T01:14:33;16.77;;;10.50;;
54935;SDS011;40838;50.676;7.838;2022-07-23T01:17:01;19.80;;;11.05;;
54935;SDS011;40838;50.676;7.838;2022-07-23T01:19:27;14.40;;;10.48;;
54935;SDS011;40838;50.676;7.838;2022-07-23T01:25:30;13.07;;;9.73;;
54935;SDS011;40838;50.676;7.838;2022-07-23T01:28:00;14.75;;;11.35;;
54935;SDS011;40838;50.676;7.838;2022-07-23T01:30:27;14.07;;;10.68;;
54935;SDS011;40838;50.676;7.838;2022-07-23T01:32:56;20.23;;;12.07;;
54935;SDS011;40838;50.676;7.838;2022-07-23T01:38:03;17.20;;;11.40;;
54935;SDS011;40838;50.676;7.838;2022-07-23T01:40:32;16.38;;;11.02;;
54935;SDS011;40838;50.676;7.838;2022-07-23T01:42:58;16.33;;;10.63;;
54935;SDS011;40838;50.676;7.838;2022-07-23T01:45:25;18.05;;;11.27;;
54935;SDS011;40838;50.676;7.838;2022-07-23T01:47:52;17.90;;;11.32;;
54935;SDS011;40838;50.676;7.838;2022-07-23T01:50:21;17.30;;;10.70;;
54935;SDS011;40838;50.676;7.838;2022-07-23T01:53:07;15.57;;;10.65;;
54935;SDS011;40838;50.676;7.838;2022-07-23T01:55:37;20.65;;;11.15;;
54935;SDS011;40838;50.676;7.838;2022-07-23T01:58:07;14.48;;;10.70;;
54935;SDS011;40838;50.676;7.838;2022-07-23T02:00:35;18.98;;;10.50;;
54935;SDS011;40838;50.676;7.838;2022-07-23T02:03:02;17.60;;;11.55;;
54935;SDS011;40838;50.676;7.838;2022-07-23T02:05:30;14.55;;;9.80;;
54935;SDS011;40838;50.676;7.838;2022-07-23T02:07:58;14.48;;;10.48;;
54935;SDS011;40838;50.676;7.838;2022-07-23T02:10:25;18.23;;;10.45;;
54935;SDS011;40838;50.676;7.838;2022-07-23T02:12:57;14.48;;;10.98;;
54935;SDS011;40838;50.676;7.838;2022-07-23T02:15:24;16.83;;;12.15;;
54935;SDS011;40838;50.676;7.838;2022-07-23T02:17:55;14.50;;;11.50;;
54935;SDS011;40838;50.676;7.838;2022-07-23T02:20:22;22.52;;;12.95;;
54935;SDS011;40838;50.676;7.838;2022-07-23T02:22:52;14.50;;;11.23;;
54935;SDS011;40838;50.676;7.838;2022-07-23T02:25:18;18.83;;;12.02;;
54935;SDS011;40838;50.676;7.838;2022-07-23T02:27:47;21.83;;;12.20;;
54935;SDS011;40838;50.676;7.838;2022-07-23T02:30:15;19.65;;;11.57;;
54935;SDS011;40838;50.676;7.838;2022-07-23T02:32:44;18.33;;;11.80;;
54935;SDS011;40838;50.676;7.838;2022-07-23T02:35:10;18.70;;;12.60;;
54935;SDS011;40838;50.676;7.838;2022-07-23T02:37:37;16.52;;;12.63;;
54935;SDS011;40838;50.676;7.838;2022-07-23T02:40:07;21.45;;;12.68;;
54935;SDS011;40838;50.676;7.838;2022-07-23T02:42:39;18.45;;;13.07;;
54935;SDS011;40838;50.676;7.838;2022-07-23T02:45:11;19.45;;;12.15;;
54935;SDS011;40838;50.676;7.838;2022-07-23T02:47:40;14.35;;;11.43;;
54935;SDS011;40838;50.676;7.838;2022-07-23T02:50:10;18.17;;;11.90;;
54935;SDS011;40838;50.676;7.838;2022-07-23T02:52:38;16.52;;;11.38;;
54935;SDS011;40838;50.676;7.838;2022-07-23T02:55:07;18.40;;;12.45;;
54935;SDS011;40838;50.676;7.838;2022-07-23T02:57:34;16.40;;;11.50;;
54935;SDS011;40838;50.676;7.838;2022-07-23T03:00:00;18.20;;;11.50;;
54935;SDS011;40838;50.676;7.838;2022-07-23T03:02:27;13.95;;;10.40;;
54935;SDS011;40838;50.676;7.838;2022-07-23T03:07:38;14.82;;;10.50;;
54935;SDS011;40838;50.676;7.838;2022-07-23T03:10:05;12.80;;;10.13;;
54935;SDS011;40838;50.676;7.838;2022-07-23T03:12:32;15.18;;;8.95;;
54935;SDS011;40838;50.676;7.838;2022-07-23T03:14:58;12.40;;;8.45;;
54935;SDS011;40838;50.676;7.838;2022-07-23T03:17:26;13.63;;;8.35;;
54935;SDS011;40838;50.676;7.838;2022-07-23T03:19:53;14.43;;;9.15;;
54935;SDS011;40838;50.676;7.838;2022-07-23T03:22:19;15.32;;;8.27;;
54935;SDS011;40838;50.676;7.838;2022-07-23T03:24:48;12.38;;;8.38;;
54935;SDS011;40838;50.676;7.838;2022-07-23T03:27:29;13.93;;;8.45;;
54935;SDS011;40838;50.676;7.838;2022-07-23T03:29:56;10.35;;;7.88;;
54935;SDS011;40838;50.676;7.838;2022-07-23T03:32:31;9.57;;;7.70;;
54935;SDS011;40838;50.676;7.838;2022-07-23T03:34:58;14.13;;;7.30;;
54935;SDS011;40838;50.676;7.838;2022-07-23T03:37:25;10.75;;;7.30;;
54935;SDS011;40838;50.676;7.838;2022-07-23T03:39:54;12.93;;;7.35;;
54935;SDS011;40838;50.676;7.838;2022-07-23T03:42:21;9.45;;;6.95;;
54935;SDS011;40838;50.676;7.838;2022-07-23T03:44:47;9.98;;;7.15;;
54935;SDS011;40838;50.676;7.838;2022-07-23T03:47:14;8.85;;;7.18;;
54935;SDS011;40838;50.676;7.838;2022-07-23T03:49:43;10.30;;;7.40;;
54935;SDS011;40838;50.676;7.838;2022-07-23T03:52:09;9.82;;;6.72;;
54935;SDS011;40838;50.676;7.838;2022-07-23T03:54:41;11.55;;;6.82;;
54935;SDS011;40838;50.676;7.838;2022-07-23T03:57:09;9.82;;;7.13;;
54935;SDS011;40838;50.676;7.838;2022-07-23T03:59:39;8.25;;;7.15;;
54935;SDS011;40838;50.676;7.838;2022-07-23T04:02:07;10.70;;;7.03;;
54935;SDS011;40838;50.676;7.838;2022-07-23T04:04:34;25.10;;;11.40;;
54935;SDS011;40838;50.676;7.838;2022-07-23T04:07:06;15.35;;;9.00;;
54935;SDS011;40838;50.676;7.838;2022-07-23T04:09:33;14.80;;;8.95;;
54935;SDS011;40838;50.676;7.838;2022-07-23T04:12:00;11.70;;;7.93;;
54935;SDS011;40838;50.676;7.838;2022-07-23T04:14:30;12.05;;;8.65;;
54935;SDS011;40838;50.676;7.838;2022-07-23T04:16:56;12.32;;;8.40;;
54935;SDS011;40838;50.676;7.838;2022-07-23T04:19:23;14.43;;;8.75;;
54935;SDS011;40838;50.676;7.838;2022-07-23T04:22:00;11.88;;;7.75;;
54935;SDS011;40838;50.676;7.838;2022-07-23T04:24:29;14.90;;;8.05;;
54935;SDS011;40838;50.676;7.838;2022-07-23T04:27:08;14.65;;;7.90;;
54935;SDS011;40838;50.676;7.838;2022-07-23T04:29:38;9.77;;;8.07;;
54935;SDS011;40838;50.676;7.838;2022-07-23T04:32:05;11.05;;;7.65;;
54935;SDS011;40838;50.676;7.838;2022-07-23T04:34:32;12.10;;;8.02;;
54935;SDS011;40838;50.676;7.838;2022-07-23T04:37:01;9.48;;;7.68;;
54935;SDS011;40838;50.676;7.838;2022-07-23T04:39:30;9.50;;;7.45;;
54935;SDS011;40838;50.676;7.838;2022-07-23T04:41:58;9.48;;;7.35;;
54935;SDS011;40838;50.676;7.838;2022-07-23T04:44:24;10.23;;;8.15;;
54935;SDS011;40838;50.676;7.838;2022-07-23T04:46:54;9.98;;;6.82;;
54935;SDS011;40838;50.676;7.838;2022-07-23T04:49:23;10.23;;;7.55;;
54935;SDS011;40838;50.676;7.838;2022-07-23T04:51:49;9.02;;;6.95;;
54935;SDS011;40838;50.676;7.838;2022-07-23T04:54:16;11.10;;;7.22;;
54935;SDS011;40838;50.676;7.838;2022-07-23T04:56:43;8.85;;;6.40;;
54935;SDS011;40838;50.676;7.838;2022-07-23T04:59:15;9.90;;;6.47;;
54935;SDS011;40838;50.676;7.838;2022-07-23T05:01:42;11.13;;;6.95;;
54935;SDS011;40838;50.676;7.838;2022-07-23T05:04:11;8.75;;;5.93;;
54935;SDS011;40838;50.676;7.838;2022-07-23T05:06:40;8.93;;;6.53;;
54935;SDS011;40838;50.676;7.838;2022-07-23T05:09:08;9.77;;;6.78;;
54935;SDS011;40838;50.676;7.838;2022-07-23T05:11:34;9.75;;;6.63;;
54935;SDS011;40838;50.676;7.838;2022-07-23T05:14:01;9.27;;;6.38;;
54935;SDS011;40838;50.676;7.838;2022-07-23T05:16:28;14.07;;;7.10;;
54935;SDS011;40838;50.676;7.838;2022-07-23T05:19:02;17.60;;;7.47;;
54935;SDS011;40838;50.676;7.838;2022-07-23T05:21:37;11.32;;;8.35;;
54935;SDS011;40838;50.676;7.838;2022-07-23T05:24:12;15.63;;;9.90;;
54935;SDS011;40838;50.676;7.838;2022-07-23T05:26:50;12.63;;;8.68;;
54935;SDS011;40838;50.676;7.838;2022-07-23T05:29:18;14.10;;;8.30;;
54935;SDS011;40838;50.676;7.838;2022-07-23T05:31:45;12.55;;;9.13;;
54935;SDS011;40838;50.676;7.838;2022-07-23T05:34:12;11.73;;;8.80;;
54935;SDS011;40838;50.676;7.838;2022-07-23T05:36:42;10.20;;;8.27;;
54935;SDS011;40838;50.676;7.838;2022-07-23T05:39:09;10.63;;;8.15;;
54935;SDS011;40838;50.676;7.838;2022-07-23T05:41:39;12.65;;;8.00;;
54935;SDS011;40838;50.676;7.838;2022-07-23T05:44:06;11.88;;;7.43;;
54935;SDS011;40838;50.676;7.838;2022-07-23T05:46:37;10.45;;;7.40;;
54935;SDS011;40838;50.676;7.838;2022-07-23T05:49:08;9.63;;;7.15;;
54935;SDS011;40838;50.676;7.838;2022-07-23T05:51:55;11.18;;;6.60;;
54935;SDS011;40838;50.676;7.838;2022-07-23T05:54:35;10.93;;;7.55;;
54935;SDS011;40838;50.676;7.838;2022-07-23T05:57:02;11.20;;;8.10;;
54935;SDS011;40838;50.676;7.838;2022-07-23T05:59:31;9.48;;;7.10;;
54935;SDS011;40838;50.676;7.838;2022-07-23T06:01:59;10.77;;;7.82;;
54935;SDS011;40838;50.676;7.838;2022-07-23T06:04:26;13.32;;;8.00;;
54935;SDS011;40838;50.676;7.838;2022-07-23T06:07:12;11.40;;;7.97;;
54935;SDS011;40838;50.676;7.838;2022-07-23T06:09:53;16.23;;;7.68;;
54935;SDS011;40838;50.676;7.838;2022-07-23T06:12:21;10.07;;;7.32;;
54935;SDS011;40838;50.676;7.838;2022-07-23T06:14:53;11.75;;;7.60;;
54935;SDS011;40838;50.676;7.838;2022-07-23T06:17:20;11.30;;;7.28;;
54935;SDS011;40838;50.676;7.838;2022-07-23T06:19:46;11.45;;;7.60;;
54935;SDS011;40838;50.676;7.838;2022-07-23T06:25:22;12.63;;;7.90;;
54935;SDS011;40838;50.676;7.838;2022-07-23T06:27:49;11.50;;;7.80;;
54935;SDS011;40838;50.676;7.838;2022-07-23T06:30:16;13.25;;;7.40;;
54935;SDS011;40838;50.676;7.838;2022-07-23T06:32:47;9.15;;;7.28;;
54935;SDS011;40838;50.676;7.838;2022-07-23T06:35:14;12.57;;;7.28;;
54935;SDS011;40838;50.676;7.838;2022-07-23T06:37:41;10.57;;;7.65;;
54935;SDS011;40838;50.676;7.838;2022-07-23T06:40:10;11.27;;;7.47;;
54935;SDS011;40838;50.676;7.838;2022-07-23T06:42:40;11.43;;;7.72;;
54935;SDS011;40838;50.676;7.838;2022-07-23T06:45:14;10.82;;;6.95;;
54935;SDS011;40838;50.676;7.838;2022-07-23T06:47:40;10.10;;;7.25;;
54935;SDS011;40838;50.676;7.838;2022-07-23T06:50:07;13.90;;;8.10;;
54935;SDS011;40838;50.676;7.838;2022-07-23T06:52:35;8.57;;;7.10;;
54935;SDS011;40838;50.676;7.838;2022-07-23T06:55:04;10.40;;;6.47;;
54935;SDS011;40838;50.676;7.838;2022-07-23T06:57:31;11.25;;;7.10;;
54935;SDS011;40838;50.676;7.838;2022-07-23T06:59:59;8.43;;;7.13;;
54935;SDS011;40838;50.676;7.838;2022-07-23T07:02:26;12.75;;;7.82;;
54935;SDS011;40838;50.676;7.838;2022-07-23T07:04:54;11.02;;;7.45;;
54935;SDS011;40838;50.676;7.838;2022-07-23T07:07:21;11.38;;;7.32;;
54935;SDS011;40838;50.676;7.838;2022-07-23T07:09:50;9.02;;;7.18;;
54935;SDS011;40838;50.676;7.838;2022-07-23T07:12:16;10.50;;;6.95;;
54935;SDS011;40838;50.676;7.838;2022-07-23T07:14:45;9.70;;;7.45;;
54935;SDS011;40838;50.676;7.838;2022-07-23T07:17:13;8.70;;;6.60;;
54935;SDS011;40838;50.676;7.838;2022-07-23T07:19:40;12.50;;;6.97;;
54935;SDS011;40838;50.676;7.838;2022-07-23T07:22:07;8.80;;;7.03;;
54935;SDS011;40838;50.676;7.838;2022-07-23T07:24:33;9.13;;;6.97;;
54935;SDS011;40838;50.676;7.838;2022-07-23T07:27:02;11.93;;;7.45;;
54935;SDS011;40838;50.676;7.838;2022-07-23T07:29:37;9.93;;;6.57;;
54935;SDS011;40838;50.676;7.838;2022-07-23T07:32:04;10.20;;;7.25;;
54935;SDS011;40838;50.676;7.838;2022-07-23T07:34:33;8.43;;;6.65;;
54935;SDS011;40838;50.676;7.838;2022-07-23T07:37:00;9.23;;;6.25;;
54935;SDS011;40838;50.676;7.838;2022-07-23T07:39:26;7.78;;;6.47;;
54935;SDS011;40838;50.676;7.838;2022-07-23T07:41:53;9.02;;;6.50;;
54935;SDS011;40838;50.676;7.838;2022-07-23T07:44:21;7.75;;;6.85;;
54935;SDS011;40838;50.676;7.838;2022-07-23T07:46:53;9.00;;;6.40;;
54935;SDS011;40838;50.676;7.838;2022-07-23T07:49:23;9.68;;;6.25;;
54935;SDS011;40838;50.676;7.838;2022-07-23T07:51:51;8.13;;;6.13;;
54935;SDS011;40838;50.676;7.838;2022-07-23T07:54:17;9.82;;;6.13;;
54935;SDS011;40838;50.676;7.838;2022-07-23T07:56:44;9.75;;;6.15;;
54935;SDS011;40838;50.676;7.838;2022-07-23T07:59:10;8.85;;;5.78;;
54935;SDS011;40838;50.676;7.838;2022-07-23T08:01:37;8.00;;;6.03;;
54935;SDS011;40838;50.676;7.838;2022-07-23T08:04:04;7.80;;;6.13;;
54935;SDS011;40838;50.676;7.838;2022-07-23T08:06:38;8.15;;;5.70;;
54935;SDS011;40838;50.676;7.838;2022-07-23T08:09:06;6.65;;;5.22;;
54935;SDS011;40838;50.676;7.838;2022-07-23T08:11:33;7.03;;;4.85;;
54935;SDS011;40838;50.676;7.838;2022-07-23T08:16:44;8.30;;;5.40;;
54935;SDS011;40838;50.676;7.838;2022-07-23T08:19:12;10.30;;;5.88;;
54935;SDS011;40838;50.676;7.838;2022-07-23T08:21:39;8.98;;;5.50;;
54935;SDS011;40838;50.676;7.838;2022-07-23T08:24:07;9.77;;;5.30;;
54935;SDS011;40838;50.676;7.838;2022-07-23T08:26:34;7.40;;;5.22;;
54935;SDS011;40838;50.676;7.838;2022-07-23T08:29:01;6.97;;;5.10;;
54935;SDS011;40838;50.676;7.838;2022-07-23T08:31:28;8.23;;;4.75;;
54935;SDS011;40838;50.676;7.838;2022-07-23T08:33:56;6.97;;;4.75;;
54935;SDS011;40838;50.676;7.838;2022-07-23T08:36:23;5.03;;;4.45;;
54935;SDS011;40838;50.676;7.838;2022-07-23T08:38:52;8.55;;;5.20;;
54935;SDS011;40838;50.676;7.838;2022-07-23T08:41:20;5.85;;;4.30;;
54935;SDS011;40838;50.676;7.838;2022-07-23T08:43:47;5.22;;;4.20;;
54935;SDS011;40838;50.676;7.838;2022-07-23T08:46:13;5.25;;;4.55;;
54935;SDS011;40838;50.676;7.838;2022-07-23T08:48:40;5.45;;;4.25;;
54935;SDS011;40838;50.676;7.838;2022-07-23T08:51:07;5.30;;;4.80;;
54935;SDS011;40838;50.676;7.838;2022-07-23T08:53:35;6.57;;;4.47;;
54935;SDS011;40838;50.676;7.838;2022-07-23T08:56:04;7.15;;;4.50;;
54935;SDS011;40838;50.676;7.838;2022-07-23T08:58:32;5.65;;;4.70;;
54935;SDS011;40838;50.676;7.838;2022-07-23T09:01:00;5.38;;;3.95;;
54935;SDS011;40838;50.676;7.838;2022-07-23T09:03:27;7.22;;;4.43;;
54935;SDS011;40838;50.676;7.838;2022-07-23T09:05:54;4.22;;;3.80;;
54935;SDS011;40838;50.676;7.838;2022-07-23T09:08:22;5.03;;;3.78;;
54935;SDS011;40838;50.676;7.838;2022-07-23T09:10:50;3.80;;;3.40;;
54935;SDS011;40838;50.676;7.838;2022-07-23T09:13:22;4.97;;;3.22;;
54935;SDS011;40838;50.676;7.838;2022-07-23T09:15:52;4.75;;;3.50;;
54935;SDS011;40838;50.676;7.838;2022-07-23T09:18:27;4.15;;;3.10;;
54935;SDS011;40838;50.676;7.838;2022-07-23T09:21:04;4.97;;;3.30;;
54935;SDS011;40838;50.676;7.838;2022-07-23T09:23:36;3.85;;;3.13;;
54935;SDS011;40838;50.676;7.838;2022-07-23T09:26:03;4.35;;;2.83;;
54935;SDS011;40838;50.676;7.838;2022-07-23T09:28:47;3.65;;;3.05;;
54935;SDS011;40838;50.676;7.838;2022-07-23T09:31:24;3.03;;;2.58;;
54935;SDS011;40838;50.676;7.838;2022-07-23T09:33:51;6.43;;;2.63;;
54935;SDS011;40838;50.676;7.838;2022-07-23T09:36:28;3.13;;;2.58;;
54935;SDS011;40838;50.676;7.838;2022-07-23T09:38:57;3.72;;;2.40;;
54935;SDS011;40838;50.676;7.838;2022-07-23T09:41:23;2.97;;;2.65;;
54935;SDS011;40838;50.676;7.838;2022-07-23T09:43:56;4.15;;;2.60;;
54935;SDS011;40838;50.676;7.838;2022-07-23T09:46:26;3.77;;;2.63;;
54935;SDS011;40838;50.676;7.838;2022-07-23T09:48:53;2.90;;;2.20;;
54935;SDS011;40838;50.676;7.838;2022-07-23T09:51:21;2.20;;;1.98;;
54935;SDS011;40838;50.676;7.838;2022-07-23T09:53:52;2.55;;;2.10;;
54935;SDS011;40838;50.676;7.838;2022-07-23T09:56:20;2.35;;;2.15;;
54935;SDS011;40838;50.676;7.838;2022-07-23T09:58:46;4.47;;;2.78;;
54935;SDS011;40838;50.676;7.838;2022-07-23T10:01:17;3.00;;;2.15;;
54935;SDS011;40838;50.676;7.838;2022-07-23T10:03:47;6.35;;;2.58;;
54935;SDS011;40838;50.676;7.838;2022-07-23T10:06:42;3.78;;;2.45;;
54935;SDS011;40838;50.676;7.838;2022-07-23T10:09:29;2.78;;;2.28;;
54935;SDS011;40838;50.676;7.838;2022-07-23T10:12:22;2.35;;;2.15;;
54935;SDS011;40838;50.676;7.838;2022-07-23T10:15:06;2.72;;;1.92;;
54935;SDS011;40838;50.676;7.838;2022-07-23T10:17:34;3.35;;;1.95;;
54935;SDS011;40838;50.676;7.838;2022-07-23T10:20:03;5.38;;;2.17;;
54935;SDS011;40838;50.676;7.838;2022-07-23T10:22:31;2.55;;;2.30;;
54935;SDS011;40838;50.676;7.838;2022-07-23T10:25:08;3.22;;;2.08;;
54935;SDS011;40838;50.676;7.838;2022-07-23T10:27:42;2.90;;;2.20;;
54935;SDS011;40838;50.676;7.838;2022-07-23T10:30:15;3.05;;;2.28;;
54935;SDS011;40838;50.676;7.838;2022-07-23T10:32:45;3.63;;;2.40;;
54935;SDS011;40838;50.676;7.838;2022-07-23T10:35:21;2.53;;;2.25;;
54935;SDS011;40838;50.676;7.838;2022-07-23T10:37:51;7.75;;;2.40;;
54935;SDS011;40838;50.676;7.838;2022-07-23T10:40:20;2.88;;;2.10;;
54935;SDS011;40838;50.676;7.838;2022-07-23T10:46:22;2.92;;;2.15;;
54935;SDS011;40838;50.676;7.838;2022-07-23T10:51:33;4.22;;;2.10;;
54935;SDS011;40838;50.676;7.838;2022-07-23T10:54:00;3.78;;;2.00;;
54935;SDS011;40838;50.676;7.838;2022-07-23T10:59:13;3.13;;;2.30;;
54935;SDS011;40838;50.676;7.838;2022-07-23T11:01:40;1.95;;;1.80;;
54935;SDS011;40838;50.676;7.838;2022-07-23T11:04:07;3.92;;;1.90;;
54935;SDS011;40838;50.676;7.838;2022-07-23T11:09:41;2.42;;;1.95;;
54935;SDS011;40838;50.676;7.838;2022-07-23T11:15:03;2.25;;;2.05;;
54935;SDS011;40838;50.676;7.838;2022-07-23T11:17:32;3.50;;;2.08;;
54935;SDS011;40838;50.676;7.838;2022-07-23T11:22:46;2.00;;;1.80;;
54935;SDS011;40838;50.676;7.838;2022-07-23T11:25:29;2.00;;;1.70;;
54935;SDS011;40838;50.676;7.838;2022-07-23T11:31:01;3.75;;;2.10;;
54935;SDS011;40838;50.676;7.838;2022-07-23T11:33:43;2.50;;;1.77;;
54935;SDS011;40838;50.676;7.838;2022-07-23T11:36:09;2.17;;;1.98;;
54935;SDS011;40838;50.676;7.838;2022-07-23T11:38:36;2.20;;;2.00;;
54935;SDS011;40838;50.676;7.838;2022-07-23T11:41:05;2.80;;;2.30;;
54935;SDS011;40838;50.676;7.838;2022-07-23T11:43:32;4.18;;;2.45;;
54935;SDS011;40838;50.676;7.838;2022-07-23T11:46:03;3.13;;;2.30;;
54935;SDS011;40838;50.676;7.838;2022-07-23T11:48:30;3.40;;;2.60;;
54935;SDS011;40838;50.676;7.838;2022-07-23T11:51:24;3.42;;;2.08;;
54935;SDS011;40838;50.676;7.838;2022-07-23T11:53:51;3.97;;;2.20;;
54935;SDS011;40838;50.676;7.838;2022-07-23T11:56:18;3.42;;;2.60;;
54935;SDS011;40838;50.676;7.838;2022-07-23T11:58:53;2.95;;;2.25;;
54935;SDS011;40838;50.676;7.838;2022-07-23T12:01:20;2.58;;;2.25;;
54935;SDS011;40838;50.676;7.838;2022-07-23T12:03:50;2.83;;;2.10;;
54935;SDS011;40838;50.676;7.838;2022-07-23T12:06:16;3.45;;;2.40;;
54935;SDS011;40838;50.676;7.838;2022-07-23T12:08:43;3.88;;;2.80;;
54935;SDS011;40838;50.676;7.838;2022-07-23T12:11:25;4.57;;;2.80;;
54935;SDS011;40838;50.676;7.838;2022-07-23T12:14:01;3.10;;;2.17;;
54935;SDS011;40838;50.676;7.838;2022-07-23T12:16:28;3.47;;;2.80;;
54935;SDS011;40838;50.676;7.838;2022-07-23T12:18:56;4.18;;;2.60;;
54935;SDS011;40838;50.676;7.838;2022-07-23T12:21:23;3.90;;;2.42;;
54935;SDS011;40838;50.676;7.838;2022-07-23T12:23:52;2.85;;;2.55;;
54935;SDS011;40838;50.676;7.838;2022-07-23T12:26:32;3.03;;;2.58;;
54935;SDS011;40838;50.676;7.838;2022-07-23T12:29:01;3.85;;;2.63;;
54935;SDS011;40838;50.676;7.838;2022-07-23T12:31:27;3.33;;;2.63;;
54935;SDS011;40838;50.676;7.838;2022-07-23T12:33:54;2.90;;;2.33;;
54935;SDS011;40838;50.676;7.838;2022-07-23T12:36:20;3.25;;;2.45;;
54935;SDS011;40838;50.676;7.838;2022-07-23T12:39:02;5.00;;;2.60;;
54935;SDS011;40838;50.676;7.838;2022-07-23T12:44:15;5.97;;;2.72;;
54935;SDS011;40838;50.676;7.838;2022-07-23T12:46:42;3.22;;;2.45;;
54935;SDS011;40838;50.676;7.838;2022-07-23T12:49:10;3.67;;;2.60;;
54935;SDS011;40838;50.676;7.838;2022-07-23T12:51:39;4.75;;;2.70;;
54935;SDS011;40838;50.676;7.838;2022-07-23T12:54:06;4.85;;;2.72;;
54935;SDS011;40838;50.676;7.838;2022-07-23T12:56:34;4.28;;;2.67;;
54935;SDS011;40838;50.676;7.838;2022-07-23T12:59:05;3.60;;;2.22;;
54935;SDS011;40838;50.676;7.838;2022-07-23T13:01:35;3.65;;;2.60;;
54935;SDS011;40838;50.676;7.838;2022-07-23T13:04:03;3.83;;;2.88;;
54935;SDS011;40838;50.676;7.838;2022-07-23T13:06:32;5.15;;;2.75;;
54935;SDS011;40838;50.676;7.838;2022-07-23T13:08:59;3.42;;;2.47;;
54935;SDS011;40838;50.676;7.838;2022-07-23T13:11:26;4.60;;;2.17;;
54935;SDS011;40838;50.676;7.838;2022-07-23T13:13:53;4.78;;;2.50;;
54935;SDS011;40838;50.676;7.838;2022-07-23T13:16:22;2.72;;;2.50;;
54935;SDS011;40838;50.676;7.838;2022-07-23T13:18:52;3.58;;;2.78;;
54935;SDS011;40838;50.676;7.838;2022-07-23T13:21:19;3.28;;;2.58;;
54935;SDS011;40838;50.676;7.838;2022-07-23T13:23:51;3.45;;;2.30;;
54935;SDS011;40838;50.676;7.838;2022-07-23T13:26:18;2.60;;;2.33;;
54935;SDS011;40838;50.676;7.838;2022-07-23T13:28:46;4.05;;;2.63;;
54935;SDS011;40838;50.676;7.838;2022-07-23T13:31:21;3.13;;;2.30;;
54935;SDS011;40838;50.676;7.838;2022-07-23T13:33:51;3.25;;;2.60;;
54935;SDS011;40838;50.676;7.838;2022-07-23T13:36:17;3.67;;;2.50;;
54935;SDS011;40838;50.676;7.838;2022-07-23T13:38:44;4.05;;;2.90;;
54935;SDS011;40838;50.676;7.838;2022-07-23T13:41:15;5.15;;;2.90;;
54935;SDS011;40838;50.676;7.838;2022-07-23T13:43:42;4.38;;;2.60;;
54935;SDS011;40838;50.676;7.838;2022-07-23T13:46:09;4.53;;;2.65;;
54935;SDS011;40838;50.676;7.838;2022-07-23T13:48:35;3.50;;;2.75;;
54935;SDS011;40838;50.676;7.838;2022-07-23T13:51:04;4.90;;;2.90;;
54935;SDS011;40838;50.676;7.838;2022-07-23T13:53:37;3.42;;;2.67;;
54935;SDS011;40838;50.676;7.838;2022-07-23T13:56:04;6.05;;;2.97;;
54935;SDS011;40838;50.676;7.838;2022-07-23T13:58:30;2.67;;;2.40;;
54935;SDS011;40838;50.676;7.838;2022-07-23T14:00:57;4.60;;;2.70;;
54935;SDS011;40838;50.676;7.838;2022-07-23T14:03:25;4.22;;;2.78;;
54935;SDS011;40838;50.676;7.838;2022-07-23T14:05:52;4.22;;;2.85;;
54935;SDS011;40838;50.676;7.838;2022-07-23T14:08:22;2.95;;;2.50;;
54935;SDS011;40838;50.676;7.838;2022-07-23T14:10:49;7.70;;;3.33;;
54935;SDS011;40838;50.676;7.838;2022-07-23T14:13:16;3.13;;;2.50;;
54935;SDS011;40838;50.676;7.838;2022-07-23T14:15:43;5.47;;;2.90;;
54935;SDS011;40838;50.676;7.838;2022-07-23T14:18:09;3.60;;;2.40;;
54935;SDS011;40838;50.676;7.838;2022-07-23T14:20:36;5.18;;;3.17;;
54935;SDS011;40838;50.676;7.838;2022-07-23T14:23:10;4.32;;;2.60;;
54935;SDS011;40838;50.676;7.838;2022-07-23T14:25:38;4.88;;;3.30;;
54935;SDS011;40838;50.676;7.838;2022-07-23T14:28:04;3.63;;;2.92;;
54935;SDS011;40838;50.676;7.838;2022-07-23T14:30:31;4.53;;;2.90;;
54935;SDS011;40838;50.676;7.838;2022-07-23T14:32:58;2.92;;;2.63;;
54935;SDS011;40838;50.676;7.838;2022-07-23T14:35:29;4.25;;;3.17;;
54935;SDS011;40838;50.676;7.838;2022-07-23T14:37:55;4.38;;;2.97;;
54935;SDS011;40838;50.676;7.838;2022-07-23T14:40:23;4.95;;;2.80;;
54935;SDS011;40838;50.676;7.838;2022-07-23T14:42:52;3.03;;;2.78;;
54935;SDS011;40838;50.676;7.838;2022-07-23T14:45:18;4.47;;;2.45;;
54935;SDS011;40838;50.676;7.838;2022-07-23T14:47:49;4.63;;;3.10;;
54935;SDS011;40838;50.676;7.838;2022-07-23T14:50:18;5.13;;;2.70;;
54935;SDS011;40838;50.676;7.838;2022-07-23T14:52:44;5.45;;;3.10;;
54935;SDS011;40838;50.676;7.838;2022-07-23T14:55:11;3.92;;;3.17;;
54935;SDS011;40838;50.676;7.838;2022-07-23T14:57:39;3.20;;;2.90;;
54935;SDS011;40838;50.676;7.838;2022-07-23T15:00:08;4.45;;;2.90;;
54935;SDS011;40838;50.676;7.838;2022-07-23T15:02:34;3.70;;;2.90;;
54935;SDS011;40838;50.676;7.838;2022-07-23T15:05:01;4.03;;;2.80;;
54935;SDS011;40838;50.676;7.838;2022-07-23T15:07:28;5.18;;;3.20;;
54935;SDS011;40838;50.676;7.838;2022-07-23T15:09:55;3.28;;;2.83;;
54935;SDS011;40838;50.676;7.838;2022-07-23T15:12:21;4.18;;;2.80;;
54935;SDS011;40838;50.676;7.838;2022-07-23T15:14:48;5.07;;;2.92;;
54935;SDS011;40838;50.676;7.838;2022-07-23T15:17:20;6.07;;;2.92;;
54935;SDS011;40838;50.676;7.838;2022-07-23T15:19:47;6.40;;;2.95;;
54935;SDS011;40838;50.676;7.838;2022-07-23T15:22:13;4.93;;;2.92;;
54935;SDS011;40838;50.676;7.838;2022-07-23T15:24:40;3.40;;;2.83;;
54935;SDS011;40838;50.676;7.838;2022-07-23T15:27:06;4.63;;;2.92;;
54935;SDS011;40838;50.676;7.838;2022-07-23T15:29:35;4.53;;;3.40;;